Time;durP1;ratioP1;P1;durP2;ratioP2;P2;SDS_P1;SDS_P2;PMS_P1;PMS_P2;Temp;Humidity;BMP_temperature;BMP_pressure;BME280_temperature;BME280_humidity;BME280_pressure;Samples;Min_cycle;Max_cycle;Signal;HPM_P1;HPM_P2
2023/03/10 00:01:37;;;;;;;10.83;6.00;;;10.70;51.90;;;;;;5054192;28;20179;-54
2023/03/10 00:04:03;;;;;;;13.60;6.53;;;10.70;51.90;;;;;;5053527;28;20196;-53
2023/03/10 00:06:34;;;;;;;16.63;7.17;;;10.80;52.00;;;;;;5053669;28;20203;-57
2023/03/10 00:09:00;;;;;;;12.35;6.35;;;10.80;52.10;;;;;;5053527;28;20399;-54
2023/03/10 00:11:26;;;;;;;10.98;4.80;;;10.80;52.00;;;;;;5053917;28;20224;-53
2023/03/10 00:13:52;;;;;;;12.77;4.95;;;10.80;52.00;;;;;;5053318;28;20681;-53
2023/03/10 00:16:26;;;;;;;16.60;6.47;;;10.80;52.00;;;;;;5053593;28;20175;-55
2023/03/10 00:18:52;;;;;;;7.13;4.18;;;10.80;52.80;;;;;;5053806;28;20169;-55
2023/03/10 00:21:21;;;;;;;6.93;4.70;;;10.80;52.20;;;;;;5053367;28;20177;-53
2023/03/10 00:23:47;;;;;;;12.65;4.50;;;10.90;52.30;;;;;;5053018;28;20189;-54
2023/03/10 00:26:15;;;;;;;8.13;3.20;;;10.90;52.30;;;;;;5052690;28;20228;-54
2023/03/10 00:28:41;;;;;;;6.65;3.03;;;10.90;52.30;;;;;;5053294;28;20187;-54
2023/03/10 00:31:11;;;;;;;13.37;4.90;;;11.00;52.30;;;;;;5053255;28;20181;-56
2023/03/10 00:33:37;;;;;;;7.57;3.55;;;11.00;52.20;;;;;;5052908;28;20431;-56
2023/03/10 00:36:16;;;;;;;5.30;3.20;;;11.00;52.20;;;;;;5053163;28;20169;-52
2023/03/10 00:38:44;;;;;;;5.82;3.42;;;11.00;52.10;;;;;;5053038;28;20412;-55
2023/03/10 00:41:13;;;;;;;7.38;3.05;;;11.10;52.10;;;;;;5053268;28;20173;-56
2023/03/10 00:43:39;;;;;;;11.27;3.13;;;11.10;52.00;;;;;;5052720;28;20231;-53
2023/03/10 00:46:05;;;;;;;7.73;5.90;;;10.90;52.20;;;;;;5052881;28;20220;-55
2023/03/10 00:48:31;;;;;;;9.88;3.70;;;11.00;52.30;;;;;;5053011;28;20796;-53
2023/03/10 00:50:58;;;;;;;11.40;3.00;;;11.00;52.00;;;;;;5053104;28;20238;-54
2023/03/10 00:53:24;;;;;;;8.48;2.60;;;11.00;52.30;;;;;;5052509;28;20929;-57
2023/03/10 00:56:17;;;;;;;8.02;3.25;;;11.00;52.30;;;;;;5052834;28;20172;-54
2023/03/10 00:58:44;;;;;;;8.32;3.47;;;11.10;52.10;;;;;;5052363;28;20189;-55
2023/03/10 01:01:19;;;;;;;7.55;2.50;;;11.10;52.20;;;;;;5052990;28;20210;-55
2023/03/10 01:03:45;;;;;;;7.53;2.42;;;11.10;52.00;;;;;;5052425;28;20193;-53
2023/03/10 01:06:11;;;;;;;5.37;2.60;;;11.10;51.90;;;;;;5052707;28;20170;-55
2023/03/10 01:08:37;;;;;;;10.05;3.45;;;11.10;52.30;;;;;;5052809;28;20804;-55
2023/03/10 01:11:03;;;;;;;6.82;3.55;;;11.20;52.40;;;;;;5052562;28;20659;-54
2023/03/10 01:13:29;;;;;;;8.90;2.70;;;11.20;52.40;;;;;;5052131;28;20185;-54
2023/03/10 01:15:55;;;;;;;9.80;3.23;;;11.20;52.40;;;;;;5052487;28;20176;-56
2023/03/10 01:18:21;;;;;;;6.57;2.67;;;11.30;52.50;;;;;;5052411;28;20411;-54
2023/03/10 01:20:48;;;;;;;7.60;3.50;;;11.40;52.40;;;;;;5052275;28;20239;-53
2023/03/10 01:23:22;;;;;;;12.52;3.08;;;11.40;52.30;;;;;;5051971;28;20174;-54
2023/03/10 01:25:49;;;;;;;8.68;2.72;;;11.60;52.10;;;;;;5052285;28;20726;-56
2023/03/10 01:28:15;;;;;;;6.00;2.60;;;11.60;52.00;;;;;;5052115;28;20212;-52
2023/03/10 01:30:41;;;;;;;6.20;2.65;;;11.60;52.00;;;;;;5052220;28;20343;-54
2023/03/10 01:33:08;;;;;;;5.47;3.03;;;11.60;51.80;;;;;;5051829;28;20168;-55
2023/03/10 01:35:34;;;;;;;9.07;2.55;;;11.60;51.90;;;;;;5052244;28;20177;-53
2023/03/10 01:38:00;;;;;;;7.20;3.47;;;11.60;51.80;;;;;;5051834;28;20680;-53
2023/03/10 01:40:26;;;;;;;7.80;2.70;;;11.70;51.80;;;;;;5050764;28;20764;-55
2023/03/10 01:43:17;;;;;;;12.67;3.03;;;11.60;51.70;;;;;;5051996;28;20187;-55
2023/03/10 01:45:43;;;;;;;6.68;2.38;;;11.70;51.70;;;;;;5051314;28;20418;-52
2023/03/10 01:48:15;;;;;;;7.32;2.95;;;11.70;51.80;;;;;;5051896;28;20221;-56
2023/03/10 01:50:43;;;;;;;4.10;2.20;;;11.70;51.70;;;;;;5051988;28;20181;-53
2023/03/10 01:53:11;;;;;;;5.40;2.65;;;11.70;51.60;;;;;;5051612;28;20230;-57
2023/03/10 01:55:42;;;;;;;8.10;2.88;;;11.80;51.30;;;;;;5051901;28;20180;-53
2023/03/10 01:58:08;;;;;;;6.18;2.28;;;11.80;51.00;;;;;;5051182;28;20249;-53
2023/03/10 02:00:35;;;;;;;8.38;2.47;;;11.80;51.00;;;;;;5051848;28;20580;-53
2023/03/10 02:03:07;;;;;;;9.40;2.90;;;11.80;50.80;;;;;;5051684;28;20544;-56
2023/03/10 02:05:37;;;;;;;3.95;2.53;;;11.80;50.90;;;;;;5051784;28;20173;-53
2023/03/10 02:08:04;;;;;;;6.45;2.40;;;11.80;50.80;;;;;;5051785;28;20798;-53
2023/03/10 02:10:31;;;;;;;9.13;3.20;;;11.80;50.80;;;;;;5051843;28;20526;-55
2023/03/10 02:12:57;;;;;;;7.28;2.63;;;11.80;50.50;;;;;;5051596;28;20177;-53
2023/03/10 02:15:22;;;;;;;5.20;3.53;;;11.90;50.80;;;;;;5051647;28;20185;-53
2023/03/10 02:17:50;;;;;;;5.93;2.77;;;11.90;50.80;;;;;;5051764;28;20165;-53
2023/03/10 02:20:25;;;;;;;11.32;3.08;;;11.90;50.70;;;;;;5051606;28;20177;-56
2023/03/10 02:22:51;;;;;;;7.18;3.00;;;11.90;50.50;;;;;;5051897;28;20165;-56
2023/03/10 02:25:31;;;;;;;8.73;3.90;;;12.00;50.60;;;;;;5051557;28;20197;-56
2023/03/10 02:27:58;;;;;;;6.47;3.80;;;12.00;50.10;;;;;;5051564;28;20267;-55
2023/03/10 02:30:31;;;;;;;4.90;2.75;;;12.00;50.30;;;;;;5051578;28;20170;-56
2023/03/10 02:33:02;;;;;;;4.60;2.83;;;12.00;50.00;;;;;;5051714;28;20173;-54
2023/03/10 02:35:28;;;;;;;5.28;3.28;;;12.10;50.20;;;;;;5051512;28;20212;-54
2023/03/10 02:37:54;;;;;;;3.70;2.77;;;12.20;50.10;;;;;;5051820;28;20637;-54
2023/03/10 02:40:33;;;;;;;7.10;2.97;;;12.20;50.10;;;;;;5051670;28;20235;-56
2023/03/10 02:43:13;;;;;;;5.57;2.75;;;12.20;50.00;;;;;;5051274;28;20196;-52
2023/03/10 02:45:41;;;;;;;4.35;3.30;;;12.20;49.90;;;;;;5051631;28;20541;-55
2023/03/10 02:48:13;;;;;;;4.95;2.85;;;12.20;50.00;;;;;;5051406;28;20715;-53
2023/03/10 02:50:44;;;;;;;6.80;2.75;;;12.20;50.00;;;;;;5053475;28;20180;-53
2023/03/10 02:53:17;;;;;;;7.57;2.42;;;12.20;49.80;;;;;;5054827;28;20621;-55
2023/03/10 02:55:42;;;;;;;5.68;1.75;;;12.30;49.70;;;;;;5055404;28;20188;-55
2023/03/10 02:58:08;;;;;;;7.53;1.57;;;12.30;49.10;;;;;;5055031;28;20529;-54
2023/03/10 03:00:39;;;;;;;4.80;1.48;;;12.40;48.90;;;;;;5054950;28;20668;-57
2023/03/10 03:03:06;;;;;;;5.15;1.83;;;12.60;48.80;;;;;;5054625;28;20181;-56
2023/03/10 03:05:32;;;;;;;3.83;1.05;;;12.70;48.90;;;;;;5054835;28;20204;-54
2023/03/10 03:07:58;;;;;;;4.95;2.10;;;12.80;48.40;;;;;;5054761;28;20250;-56
2023/03/10 03:10:24;;;;;;;8.18;2.25;;;12.80;48.00;;;;;;5054859;28;20169;-53
2023/03/10 03:12:50;;;;;;;9.20;2.00;;;13.00;48.80;;;;;;5054642;28;20686;-53
2023/03/10 03:15:18;;;;;;;5.68;1.73;;;12.90;48.60;;;;;;5054725;28;20423;-55
2023/03/10 03:17:44;;;;;;;2.22;1.35;;;12.90;48.80;;;;;;5054681;28;20170;-55
2023/03/10 03:20:13;;;;;;;8.80;1.97;;;13.00;48.70;;;;;;5054619;28;20536;-53
2023/03/10 03:22:43;;;;;;;4.30;1.80;;;13.00;48.50;;;;;;5054465;28;20408;-54
2023/03/10 03:25:12;;;;;;;3.72;1.63;;;13.10;48.70;;;;;;5054332;28;20231;-57
2023/03/10 03:27:38;;;;;;;4.43;1.30;;;13.10;48.40;;;;;;5054435;28;20272;-53
2023/03/10 03:30:07;;;;;;;3.10;1.40;;;13.20;48.30;;;;;;5054760;28;20196;-53
2023/03/10 03:32:34;;;;;;;5.68;1.95;;;13.20;47.90;;;;;;5054360;28;20240;-54
2023/03/10 03:35:00;;;;;;;3.80;1.73;;;13.20;47.90;;;;;;5054299;28;20197;-53
2023/03/10 03:37:26;;;;;;;5.50;3.67;;;13.20;48.00;;;;;;5054318;28;20518;-55
2023/03/10 03:39:51;;;;;;;3.00;1.73;;;13.20;47.90;;;;;;5054232;28;20509;-57
2023/03/10 03:42:17;;;;;;;7.97;1.63;;;13.20;48.00;;;;;;5054231;28;20170;-54
2023/03/10 03:44:43;;;;;;;3.67;1.67;;;13.30;47.70;;;;;;5053870;28;20193;-55
2023/03/10 03:47:09;;;;;;;2.53;1.50;;;13.30;47.30;;;;;;5054022;28;20209;-55
2023/03/10 03:49:38;;;;;;;6.82;1.75;;;13.30;47.40;;;;;;5053965;28;20252;-53
2023/03/10 03:52:07;;;;;;;3.90;1.48;;;13.20;48.10;;;;;;5054012;28;20185;-55
2023/03/10 03:54:33;;;;;;;5.55;1.90;;;13.30;47.50;;;;;;5053713;28;20236;-53
2023/03/10 03:56:59;;;;;;;4.80;1.40;;;13.30;47.40;;;;;;5054133;28;20192;-53
2023/03/10 03:59:24;;;;;;;4.47;1.80;;;13.30;47.30;;;;;;5054260;28;20368;-57
2023/03/10 04:01:50;;;;;;;4.97;1.80;;;13.30;47.00;;;;;;5053769;28;20177;-52
2023/03/10 04:04:16;;;;;;;3.30;1.67;;;13.30;47.40;;;;;;5053379;28;20419;-53
2023/03/10 04:06:42;;;;;;;3.00;1.47;;;13.30;47.30;;;;;;5053664;28;20600;-55
2023/03/10 04:09:09;;;;;;;3.20;1.73;;;13.30;47.10;;;;;;5053756;28;20431;-53
2023/03/10 04:11:35;;;;;;;4.28;2.30;;;13.30;47.30;;;;;;5053588;28;20629;-56
2023/03/10 04:14:01;;;;;;;5.00;1.90;;;13.30;47.50;;;;;;5053386;28;20193;-56
2023/03/10 04:16:27;;;;;;;8.07;3.77;;;13.20;47.60;;;;;;5052415;28;20171;-54
2023/03/10 04:18:52;;;;;;;5.93;3.13;;;13.20;47.70;;;;;;5053621;28;20465;-53
2023/03/10 04:21:18;;;;;;;6.73;3.87;;;13.10;47.80;;;;;;5053518;28;20171;-56
2023/03/10 04:23:44;;;;;;;6.37;4.07;;;13.10;47.80;;;;;;5053279;28;20213;-52
2023/03/10 04:26:10;;;;;;;7.47;3.67;;;13.00;48.00;;;;;;5053350;28;20789;-54
2023/03/10 04:28:36;;;;;;;9.20;3.97;;;13.00;48.00;;;;;;5053296;28;20201;-56
2023/03/10 04:31:03;;;;;;;6.28;3.67;;;13.00;48.00;;;;;;5053313;28;20251;-53
2023/03/10 04:33:29;;;;;;;5.47;3.60;;;12.90;48.10;;;;;;5052764;28;20557;-53
2023/03/10 04:35:55;;;;;;;6.17;3.97;;;12.90;48.30;;;;;;5053145;28;20166;-56
2023/03/10 04:38:24;;;;;;;8.65;4.65;;;12.90;48.40;;;;;;5053193;28;20177;-54
2023/03/10 04:40:55;;;;;;;6.88;3.40;;;12.90;48.40;;;;;;5053163;28;20252;-56
2023/03/10 04:43:20;;;;;;;6.97;4.40;;;12.90;48.30;;;;;;5052842;28;20188;-57
2023/03/10 04:45:47;;;;;;;4.87;3.67;;;12.90;48.30;;;;;;5052861;28;20185;-53
2023/03/10 04:48:13;;;;;;;7.60;3.70;;;12.90;48.30;;;;;;5053254;28;20213;-56
2023/03/10 04:50:39;;;;;;;8.27;3.97;;;12.90;48.40;;;;;;5052939;28;20654;-54
2023/03/10 04:53:05;;;;;;;11.00;5.30;;;12.90;48.30;;;;;;5052705;28;20256;-55
2023/03/10 04:55:31;;;;;;;6.27;4.20;;;12.90;48.30;;;;;;5052782;28;20474;-53
2023/03/10 04:57:56;;;;;;;5.73;4.30;;;12.90;48.20;;;;;;5052814;28;20235;-53
2023/03/10 05:00:22;;;;;;;5.37;3.20;;;12.90;48.20;;;;;;5052784;28;20934;-57
2023/03/10 05:02:48;;;;;;;10.00;3.40;;;12.90;48.10;;;;;;5052489;28;20424;-57
2023/03/10 05:05:14;;;;;;;5.37;3.37;;;12.90;48.20;;;;;;5052687;28;20428;-54
2023/03/10 05:07:40;;;;;;;5.07;2.80;;;12.90;48.20;;;;;;5052780;28;20319;-53
2023/03/10 05:10:06;;;;;;;3.03;2.07;;;12.90;48.20;;;;;;5052585;28;20169;-55
2023/03/10 05:12:32;;;;;;;4.70;2.70;;;12.80;47.70;;;;;;5051821;28;20461;-53
2023/03/10 05:14:58;;;;;;;12.30;3.37;;;12.80;48.00;;;;;;5052343;28;20185;-56
2023/03/10 05:17:25;;;;;;;4.63;1.93;;;12.80;48.20;;;;;;5052543;28;20172;-57
2023/03/10 05:19:51;;;;;;;4.38;3.05;;;12.90;47.80;;;;;;5052583;28;20443;-57
2023/03/10 05:22:17;;;;;;;4.67;3.00;;;12.90;48.00;;;;;;5052412;28;20201;-54
2023/03/10 05:24:42;;;;;;;5.30;2.30;;;12.90;47.90;;;;;;5051972;28;20189;-56
2023/03/10 05:27:09;;;;;;;3.00;1.20;;;12.90;47.90;;;;;;5052220;28;20196;-55
2023/03/10 05:29:37;;;;;;;3.38;1.90;;;13.00;48.00;;;;;;5052208;28;20169;-53
2023/03/10 05:32:03;;;;;;;3.60;1.98;;;13.00;47.40;;;;;;5052146;28;20173;-54
2023/03/10 05:34:29;;;;;;;4.73;2.03;;;13.00;47.60;;;;;;5051855;28;20200;-56
2023/03/10 05:36:55;;;;;;;3.13;1.42;;;13.00;47.10;;;;;;5050880;28;20862;-55
2023/03/10 05:39:21;;;;;;;2.33;1.60;;;13.00;47.10;;;;;;5052406;28;20200;-57
2023/03/10 05:41:47;;;;;;;2.07;1.10;;;13.10;47.00;;;;;;5052141;28;20404;-52
2023/03/10 05:44:13;;;;;;;2.27;1.23;;;13.20;46.60;;;;;;5051727;28;20423;-54
2023/03/10 05:46:38;;;;;;;1.77;1.17;;;13.20;46.30;;;;;;5051808;28;20196;-57
2023/03/10 05:49:04;;;;;;;2.90;1.27;;;13.30;46.00;;;;;;5052004;28;20165;-53
2023/03/10 05:51:30;;;;;;;3.33;1.90;;;13.30;46.30;;;;;;5052261;28;20176;-54
2023/03/10 05:53:56;;;;;;;1.90;1.13;;;13.30;46.50;;;;;;5051886;28;20676;-58
2023/03/10 05:56:22;;;;;;;5.10;2.10;;;13.40;46.50;;;;;;5051925;28;20502;-52
2023/03/10 05:58:49;;;;;;;4.95;2.92;;;13.40;45.90;;;;;;5051887;28;20197;-54
2023/03/10 06:01:16;;;;;;;4.65;2.75;;;13.40;46.10;;;;;;5052054;28;20260;-54
2023/03/10 06:03:43;;;;;;;3.53;1.60;;;13.40;45.70;;;;;;5051857;28;20233;-52
2023/03/10 06:06:10;;;;;;;2.47;1.65;;;13.50;45.30;;;;;;5052028;28;20188;-55
2023/03/10 06:08:36;;;;;;;4.47;1.65;;;13.50;45.40;;;;;;5052023;28;20196;-57
2023/03/10 06:11:03;;;;;;;4.82;1.80;;;13.60;45.20;;;;;;5051742;28;20219;-55
2023/03/10 06:13:30;;;;;;;3.42;1.85;;;13.60;45.40;;;;;;5051397;28;20211;-59
2023/03/10 06:16:01;;;;;;;3.03;1.17;;;13.60;45.30;;;;;;5051739;28;20180;-56
2023/03/10 06:18:27;;;;;;;6.05;2.05;;;13.70;44.50;;;;;;5051703;28;20172;-53
2023/03/10 06:20:53;;;;;;;2.58;1.10;;;13.70;44.70;;;;;;5051676;28;20595;-55
2023/03/10 06:23:20;;;;;;;3.00;1.77;;;13.70;44.80;;;;;;5051378;28;20249;-57
2023/03/10 06:26:01;;;;;;;3.97;2.05;;;13.80;45.10;;;;;;5055886;28;20197;-53
2023/03/10 06:28:31;;;;;;;3.08;1.98;;;13.80;43.50;;;;;;5055551;28;20219;-56
2023/03/10 06:31:00;;;;;;;5.60;1.95;;;13.70;44.20;;;;;;5055573;28;20178;-58
2023/03/10 06:33:28;;;;;;;6.00;3.60;;;13.70;44.70;;;;;;5053919;28;20292;-54
2023/03/10 06:35:53;;;;;;;3.30;1.80;;;13.80;44.40;;;;;;5055534;28;20705;-57
2023/03/10 06:38:20;;;;;;;6.37;1.60;;;13.80;43.80;;;;;;5055403;28;20261;-53
2023/03/10 06:40:46;;;;;;;2.50;1.65;;;13.80;43.80;;;;;;5055351;28;20177;-53
2023/03/10 06:43:12;;;;;;;2.03;1.13;;;13.80;43.70;;;;;;5055044;28;20667;-57
2023/03/10 06:45:41;;;;;;;1.80;1.00;;;13.90;44.10;;;;;;5055121;28;20185;-57
2023/03/10 06:48:07;;;;;;;5.10;1.90;;;13.90;43.70;;;;;;5055273;28;20204;-55
2023/03/10 06:50:32;;;;;;;3.73;1.20;;;13.90;44.40;;;;;;5055102;28;20173;-57
2023/03/10 06:52:58;;;;;;;6.43;2.40;;;14.00;44.10;;;;;;5054824;28;20530;-53
2023/03/10 06:55:24;;;;;;;3.17;1.50;;;14.10;44.20;;;;;;5055315;28;20530;-54
2023/03/10 06:57:50;;;;;;;3.80;1.60;;;14.10;44.10;;;;;;5055233;28;20255;-57
2023/03/10 07:00:17;;;;;;;10.90;1.30;;;14.00;43.90;;;;;;5054974;28;20181;-53
2023/03/10 07:02:42;;;;;;;2.03;1.42;;;14.10;43.60;;;;;;5054936;28;20168;-55
2023/03/10 07:05:13;;;;;;;3.10;1.77;;;13.90;44.00;;;;;;5054668;28;20197;-54
2023/03/10 07:07:39;;;;;;;5.45;1.52;;;14.10;44.40;;;;;;5054736;28;20545;-57
2023/03/10 07:10:05;;;;;;;3.67;1.60;;;14.10;44.20;;;;;;5055025;28;20256;-53
2023/03/10 07:12:32;;;;;;;3.30;2.13;;;14.00;44.00;;;;;;5055064;28;20407;-54
2023/03/10 07:14:58;;;;;;;4.22;1.50;;;14.00;44.20;;;;;;5054459;28;20196;-57
2023/03/10 07:17:24;;;;;;;3.30;1.10;;;14.10;44.40;;;;;;5054681;28;20525;-54
2023/03/10 07:19:50;;;;;;;1.83;0.98;;;14.20;44.20;;;;;;5054681;28;20252;-53
2023/03/10 07:22:16;;;;;;;5.95;2.50;;;14.20;43.80;;;;;;5054557;28;20177;-54
2023/03/10 07:24:42;;;;;;;2.07;1.00;;;14.20;43.70;;;;;;5054318;28;20200;-56
2023/03/10 07:27:08;;;;;;;3.47;0.90;;;14.20;44.00;;;;;;5054599;28;20200;-54
2023/03/10 07:29:34;;;;;;;4.90;1.00;;;14.30;43.90;;;;;;5054458;28;20176;-57
2023/03/10 07:31:59;;;;;;;5.40;1.15;;;14.20;44.70;;;;;;5054438;28;20668;-53
2023/03/10 07:34:25;;;;;;;2.13;1.20;;;14.20;44.20;;;;;;5054241;28;20202;-54
2023/03/10 07:36:51;;;;;;;1.80;1.10;;;14.30;43.20;;;;;;5053687;28;20703;-57
2023/03/10 07:39:17;;;;;;;1.57;1.03;;;14.30;43.80;;;;;;5054657;28;20165;-55
2023/03/10 07:41:43;;;;;;;1.90;0.87;;;14.30;43.60;;;;;;5054531;28;20196;-54
2023/03/10 07:44:09;;;;;;;2.85;0.85;;;14.30;44.00;;;;;;5052789;28;20856;-54
2023/03/10 07:46:35;;;;;;;2.53;1.07;;;14.30;44.00;;;;;;5054203;28;20276;-54
2023/03/10 07:49:03;;;;;;;1.80;1.10;;;14.40;43.80;;;;;;5054182;28;20404;-54
2023/03/10 07:51:29;;;;;;;2.00;1.05;;;14.40;43.60;;;;;;5053950;28;20403;-57
2023/03/10 07:53:55;;;;;;;1.73;0.80;;;14.40;43.00;;;;;;5053803;28;20220;-55
2023/03/10 07:56:21;;;;;;;2.90;1.00;;;14.40;43.60;;;;;;5054057;28;20617;-55
2023/03/10 07:58:47;;;;;;;2.55;1.20;;;14.40;43.70;;;;;;5053994;28;20194;-55
2023/03/10 08:01:18;;;;;;;3.97;1.33;;;14.50;42.90;;;;;;5054057;28;20661;-54
2023/03/10 08:03:45;;;;;;;2.42;1.00;;;14.60;43.50;;;;;;5053600;28;20189;-52
2023/03/10 08:06:23;;;;;;;3.83;1.27;;;14.70;43.50;;;;;;5053862;28;20637;-56
2023/03/10 08:08:49;;;;;;;2.15;1.20;;;14.80;43.20;;;;;;5053818;28;20177;-55
2023/03/10 08:11:15;;;;;;;2.28;0.73;;;14.70;42.50;;;;;;5053874;28;20264;-58
2023/03/10 08:13:44;;;;;;;1.65;1.13;;;14.70;43.40;;;;;;5053461;28;20549;-59
2023/03/10 08:16:09;;;;;;;2.97;1.48;;;14.90;43.80;;;;;;5053856;28;20176;-53
2023/03/10 08:18:35;;;;;;;2.37;1.10;;;15.00;43.70;;;;;;5053608;28;20216;-55
2023/03/10 08:21:04;;;;;;;3.40;1.20;;;15.00;42.60;;;;;;5053961;28;20173;-56
2023/03/10 08:23:29;;;;;;;1.33;0.70;;;15.10;42.70;;;;;;5053643;28;20557;-54
2023/03/10 08:26:00;;;;;;;2.50;1.00;;;15.10;42.60;;;;;;5053603;28;20181;-55
2023/03/10 08:28:27;;;;;;;3.03;0.60;;;15.10;43.00;;;;;;5053503;28;20215;-56
2023/03/10 08:30:53;;;;;;;1.75;0.90;;;15.20;41.90;;;;;;5053359;28;20661;-53
2023/03/10 08:33:20;;;;;;;2.30;0.60;;;15.30;42.60;;;;;;5053061;28;20173;-54
2023/03/10 08:35:46;;;;;;;2.30;1.10;;;15.20;41.40;;;;;;5053373;28;20414;-59
2023/03/10 08:38:12;;;;;;;5.03;0.77;;;15.30;42.30;;;;;;5053578;28;20260;-54
2023/03/10 08:40:38;;;;;;;1.80;0.73;;;15.40;42.60;;;;;;5053239;28;20457;-55
2023/03/10 08:43:05;;;;;;;1.57;0.90;;;15.60;41.60;;;;;;5053071;28;20173;-56
2023/03/10 08:45:31;;;;;;;2.20;1.00;;;15.60;41.40;;;;;;5052811;28;20192;-56
2023/03/10 08:47:56;;;;;;;2.00;0.97;;;15.70;41.10;;;;;;5051984;28;20690;-54
2023/03/10 08:50:22;;;;;;;4.10;0.77;;;15.80;41.50;;;;;;5053048;28;20494;-54
2023/03/10 08:52:48;;;;;;;5.03;1.10;;;15.80;40.70;;;;;;5052856;28;20422;-57
2023/03/10 08:55:14;;;;;;;1.77;0.87;;;15.90;41.10;;;;;;5052730;28;20196;-55
2023/03/10 08:57:40;;;;;;;1.50;0.70;;;16.00;41.30;;;;;;5052810;28;20435;-58
2023/03/10 09:00:06;;;;;;;1.60;0.90;;;16.00;40.10;;;;;;5052787;28;20268;-53
2023/03/10 09:02:32;;;;;;;2.42;1.08;;;16.10;39.90;;;;;;5052669;28;20244;-56
2023/03/10 09:04:58;;;;;;;2.53;0.98;;;16.10;39.20;;;;;;5052339;28;20715;-58
2023/03/10 09:07:24;;;;;;;2.67;1.20;;;16.00;39.60;;;;;;5052533;28;20185;-55
2023/03/10 09:09:49;;;;;;;1.80;0.90;;;16.20;40.40;;;;;;5052629;28;20165;-54
2023/03/10 09:12:15;;;;;;;5.47;1.77;;;16.30;39.60;;;;;;5052540;28;20185;-57
2023/03/10 09:14:41;;;;;;;2.40;0.80;;;16.40;39.70;;;;;;5052389;28;20561;-55
2023/03/10 09:17:07;;;;;;;3.47;0.70;;;16.30;38.00;;;;;;5052701;28;20649;-54
2023/03/10 09:19:32;;;;;;;1.73;0.50;;;16.30;38.40;;;;;;5052560;28;20776;-57
2023/03/10 09:21:58;;;;;;;2.20;0.97;;;16.30;38.10;;;;;;5052362;28;20180;-59
2023/03/10 09:24:25;;;;;;;12.73;1.03;;;16.50;38.30;;;;;;5052055;28;20239;-53
2023/03/10 09:26:50;;;;;;;2.22;0.73;;;16.80;37.20;;;;;;5052203;28;20711;-54
2023/03/10 09:29:16;;;;;;;4.30;1.43;;;17.00;36.80;;;;;;5052095;28;20169;-59
2023/03/10 09:31:43;;;;;;;3.90;0.73;;;17.10;37.00;;;;;;5052254;28;20568;-54
2023/03/10 09:34:10;;;;;;;1.63;0.75;;;17.30;36.20;;;;;;5052194;28;20599;-55
2023/03/10 09:36:37;;;;;;;4.55;1.50;;;17.10;35.60;;;;;;5052403;28;20264;-55
2023/03/10 09:39:04;;;;;;;1.67;1.02;;;17.00;36.30;;;;;;5052198;28;20223;-54
2023/03/10 09:41:35;;;;;;;1.92;0.88;;;17.10;36.30;;;;;;5052097;28;20265;-58
2023/03/10 09:44:16;;;;;;;3.33;1.05;;;17.10;35.80;;;;;;5051961;28;20577;-56
2023/03/10 09:47:00;;;;;;;1.40;1.05;;;17.00;36.70;;;;;;5051846;28;20254;-56
2023/03/10 09:49:38;;;;;;;1.60;1.10;;;17.20;37.10;;;;;;5052033;28;20259;-58
2023/03/10 09:52:26;;;;;;;3.75;1.55;;;17.50;37.50;;;;;;5052008;28;20169;-55
2023/03/10 09:55:05;;;;;;;3.22;1.60;;;17.80;35.90;;;;;;5051961;28;20197;-58
2023/03/10 09:57:32;;;;;;;3.05;1.30;;;17.70;36.00;;;;;;5051986;28;20157;-54
2023/03/10 10:00:04;;;;;;;3.40;1.25;;;18.60;36.70;;;;;;5051648;28;20173;-57
2023/03/10 10:02:36;;;;;;;3.22;0.90;;;18.30;35.40;;;;;;5051859;28;20180;-55
2023/03/10 10:05:12;;;;;;;2.45;1.25;;;18.60;35.30;;;;;;5051890;28;20648;-56
2023/03/10 10:07:45;;;;;;;4.20;1.30;;;18.80;33.50;;;;;;5052029;28;20216;-57
2023/03/10 10:10:37;;;;;;;4.32;0.70;;;18.80;33.70;;;;;;5052107;28;20521;-56
2023/03/10 10:13:13;;;;;;;1.77;1.05;;;18.80;33.30;;;;;;5051253;28;20320;-58
2023/03/10 10:15:47;;;;;;;2.20;0.98;;;18.70;33.60;;;;;;5051983;28;20194;-54
2023/03/10 10:18:42;;;;;;;1.67;0.80;;;18.70;33.10;;;;;;5051890;28;20180;-55
2023/03/10 10:21:17;;;;;;;3.92;1.67;;;18.80;34.10;;;;;;5052078;28;20166;-56
2023/03/10 10:23:45;;;;;;;3.30;1.15;;;19.00;33.90;;;;;;5051539;28;20196;-56
2023/03/10 10:26:17;;;;;;;3.10;0.93;;;19.20;32.40;;;;;;5051763;28;20173;-56
2023/03/10 10:28:47;;;;;;;2.33;1.30;;;19.30;32.70;;;;;;5051608;28;20327;-57
2023/03/10 10:31:19;;;;;;;2.42;1.48;;;19.40;32.10;;;;;;5051772;28;20165;-56
2023/03/10 10:33:59;;;;;;;2.53;0.82;;;19.30;32.30;;;;;;5051315;28;20707;-56
2023/03/10 10:36:56;;;;;;;1.73;0.82;;;19.30;31.90;;;;;;5051926;28;20171;-57
2023/03/10 10:39:40;;;;;;;1.50;0.70;;;19.20;31.90;;;;;;5051407;28;20181;-55
2023/03/10 10:42:27;;;;;;;4.72;1.27;;;19.10;31.70;;;;;;5051716;28;20172;-59
2023/03/10 10:44:55;;;;;;;2.28;0.90;;;18.70;31.00;;;;;;5051258;28;20205;-54
2023/03/10 10:47:30;;;;;;;1.58;0.90;;;18.60;30.90;;;;;;5051358;28;20197;-58
2023/03/10 10:50:16;;;;;;;7.57;0.98;;;18.50;31.20;;;;;;5051544;28;20181;-54
2023/03/10 10:52:47;;;;;;;1.60;0.65;;;18.20;31.50;;;;;;5051207;28;20196;-55
2023/03/10 10:55:29;;;;;;;2.35;1.10;;;18.20;31.90;;;;;;5051460;28;20193;-55
2023/03/10 10:57:59;;;;;;;5.53;1.20;;;18.10;31.90;;;;;;5050701;28;20177;-55
2023/03/10 11:00:37;;;;;;;2.90;0.75;;;18.20;32.70;;;;;;5051407;28;20173;-55
2023/03/10 11:03:42;;;;;;;2.65;0.90;;;18.20;32.10;;;;;;5051165;28;20161;-59
2023/03/10 11:06:23;;;;;;;4.03;1.10;;;18.10;31.70;;;;;;5048814;28;20185;-55
2023/03/10 11:08:51;;;;;;;3.15;0.95;;;18.10;32.30;;;;;;5051268;28;20262;-55
2023/03/10 11:11:40;;;;;;;3.67;1.75;;;18.20;32.80;;;;;;5052810;28;20205;-54
2023/03/10 11:14:15;;;;;;;1.55;0.77;;;18.30;33.20;;;;;;5054748;28;20197;-55
2023/03/10 11:16:43;;;;;;;2.75;0.77;;;18.50;32.60;;;;;;5054793;28;20169;-56
2023/03/10 11:19:35;;;;;;;1.60;0.90;;;18.60;31.90;;;;;;5054842;28;20604;-60
2023/03/10 11:22:39;;;;;;;1.55;0.65;;;18.50;32.30;;;;;;5053488;28;20182;-54
2023/03/10 11:25:23;;;;;;;2.17;0.88;;;18.30;32.50;;;;;;5053456;28;20685;-60
2023/03/10 11:28:04;;;;;;;3.40;1.13;;;18.20;31.60;;;;;;5054607;28;20197;-60
2023/03/10 11:30:37;;;;;;;3.40;1.25;;;18.20;33.00;;;;;;5054718;28;20176;-55
2023/03/10 11:33:11;;;;;;;6.95;1.20;;;18.10;32.40;;;;;;5054482;28;20248;-54
2023/03/10 11:35:44;;;;;;;2.85;0.90;;;18.10;32.70;;;;;;5054505;28;20251;-56
2023/03/10 11:38:33;;;;;;;2.53;1.05;;;18.30;32.00;;;;;;5054369;28;20177;-58
2023/03/10 11:41:12;;;;;;;3.58;1.02;;;18.40;32.40;;;;;;5054397;28;20168;-56
2023/03/10 11:43:53;;;;;;;3.30;1.15;;;18.40;32.10;;;;;;5054033;28;20192;-57
2023/03/10 11:46:37;;;;;;;4.35;1.30;;;18.40;32.00;;;;;;5054157;28;20232;-59
2023/03/10 11:49:09;;;;;;;3.58;1.23;;;18.50;32.70;;;;;;5054327;28;20295;-54
2023/03/10 11:51:46;;;;;;;5.05;1.10;;;18.60;32.00;;;;;;5054405;28;20185;-56
2023/03/10 11:54:27;;;;;;;1.80;1.13;;;18.70;31.80;;;;;;5052588;28;20197;-55
2023/03/10 11:56:55;;;;;;;2.00;0.60;;;18.80;31.50;;;;;;5054558;28;20174;-58
2023/03/10 11:59:30;;;;;;;3.15;1.05;;;19.00;31.80;;;;;;5053976;28;20216;-54
2023/03/10 12:02:20;;;;;;;3.30;0.93;;;19.10;31.40;;;;;;5053934;28;20248;-59
2023/03/10 12:05:10;;;;;;;2.53;0.95;;;19.20;31.20;;;;;;5053633;28;20942;-54
2023/03/10 12:07:43;;;;;;;4.35;0.95;;;19.20;31.70;;;;;;5053535;28;20646;-54
2023/03/10 12:10:14;;;;;;;2.25;0.95;;;19.30;31.20;;;;;;5053725;28;20157;-56
2023/03/10 12:12:45;;;;;;;2.55;1.10;;;19.60;30.80;;;;;;5053849;28;20169;-58
2023/03/10 12:15:18;;;;;;;3.20;1.75;;;19.70;30.60;;;;;;5053505;28;20274;-54
2023/03/10 12:17:45;;;;;;;2.50;1.20;;;19.70;29.70;;;;;;5053629;28;20185;-56
2023/03/10 12:20:14;;;;;;;2.55;1.10;;;19.60;30.10;;;;;;5053586;28;20173;-57
2023/03/10 12:22:50;;;;;;;3.00;0.90;;;19.50;30.20;;;;;;5053587;28;20183;-55
2023/03/10 12:25:28;;;;;;;3.40;1.13;;;19.40;31.20;;;;;;5053325;28;20612;-60
2023/03/10 12:28:15;;;;;;;2.97;0.95;;;19.40;31.00;;;;;;5053276;28;20292;-58
2023/03/10 12:31:02;;;;;;;2.58;1.08;;;19.40;30.70;;;;;;5053632;28;20177;-53
2023/03/10 12:33:30;;;;;;;4.28;1.55;;;19.20;31.20;;;;;;5052964;28;20254;-57
2023/03/10 12:36:02;;;;;;;1.95;0.90;;;19.10;31.70;;;;;;5053178;28;20166;-55
2023/03/10 12:38:30;;;;;;;5.80;0.90;;;19.10;32.00;;;;;;5053288;28;20182;-58
2023/03/10 12:40:57;;;;;;;6.15;1.27;;;19.00;31.70;;;;;;5053029;28;20183;-58
2023/03/10 12:43:42;;;;;;;2.30;0.90;;;19.00;31.60;;;;;;5053057;28;20511;-55
2023/03/10 12:46:17;;;;;;;5.88;1.05;;;18.90;31.80;;;;;;5052932;28;20227;-58
2023/03/10 12:48:48;;;;;;;3.95;1.08;;;18.70;31.70;;;;;;5052843;28;20204;-53
2023/03/10 12:51:24;;;;;;;2.10;1.00;;;18.60;31.80;;;;;;5053163;28;20185;-58
2023/03/10 12:54:29;;;;;;;2.85;1.30;;;18.50;32.10;;;;;;5052616;28;20196;-55
2023/03/10 12:57:26;;;;;;;2.47;1.23;;;18.50;31.90;;;;;;5052908;28;20164;-57
2023/03/10 13:00:11;;;;;;;3.92;1.05;;;18.40;32.50;;;;;;5052768;28;20181;-55